createdAt,value
2022-10-30T00:01:02.944Z,94907.91
2022-10-30T00:03:29.587Z,94897.69
2022-10-30T00:05:56.204Z,94899.75
2022-10-30T00:08:25.622Z,94892.22
2022-10-30T00:10:52.658Z,94897.69
2022-10-30T00:13:22.767Z,94900.44
2022-10-30T00:15:53.756Z,94894.84
2022-10-30T00:18:21.174Z,94898.38
2022-10-30T00:20:48.575Z,94898.38
2022-10-30T00:23:15.727Z,94899.59
2022-10-30T00:25:42.335Z,94906.00
2022-10-30T00:28:09.172Z,94902.34
2022-10-30T00:30:36.653Z,94901.38
2022-10-30T00:33:03.734Z,94904.78
2022-10-30T00:35:31.368Z,94894.38
2022-10-30T00:37:58.450Z,94897.75
2022-10-30T00:40:25.357Z,94894.84
2022-10-30T00:42:52.229Z,94885.75
2022-10-30T00:45:19.384Z,94893.88
2022-10-30T00:47:57.592Z,94896.88
2022-10-30T00:50:37.546Z,94895.44
2022-10-30T00:53:08.840Z,94890.25
2022-10-30T00:55:45.056Z,94896.47
2022-10-30T00:58:15.450Z,94890.16
2022-10-30T01:00:46.478Z,94896.81
2022-10-30T01:03:13.416Z,94892.84
2022-10-30T01:05:42.371Z,94888.13
2022-10-30T01:08:08.995Z,94887.63
2022-10-30T01:10:35.790Z,94881.59
2022-10-30T01:13:03.349Z,94870.81
2022-10-30T01:15:44.041Z,94873.38
2022-10-30T01:18:30.729Z,94865.09
2022-10-30T01:21:09.436Z,94861.06
2022-10-30T01:24:01.799Z,94858.94
2022-10-30T01:26:46.862Z,94846.63
2022-10-30T01:29:31.990Z,94843.81
2022-10-30T01:32:29.540Z,94844.91
2022-10-30T01:35:32.635Z,94844.19
2022-10-30T01:38:12.609Z,94854.38
2022-10-30T01:40:39.197Z,94849.03
2022-10-30T01:43:05.846Z,94857.63
2022-10-30T01:45:52.807Z,94853.63
2022-10-30T01:48:42.210Z,94852.03
2022-10-30T01:51:17.619Z,94844.31
2022-10-30T01:54:07.430Z,94848.53
2022-10-30T01:57:03.086Z,94845.63
2022-10-30T01:59:37.196Z,94852.97
2022-10-30T02:02:04.993Z,94843.59
2022-10-30T02:04:32.807Z,94845.88
2022-10-30T02:07:00.336Z,94851.06
2022-10-30T02:09:27.764Z,94844.72
2022-10-30T02:11:56.171Z,94843.03
2022-10-30T02:14:31.500Z,94844.50
2022-10-30T02:17:00.687Z,94842.38
2022-10-30T02:19:27.329Z,94840.34
2022-10-30T02:21:54.054Z,94837.88
2022-10-30T02:24:20.907Z,94838.88
2022-10-30T02:26:47.468Z,94836.91
2022-10-30T02:29:14.183Z,94833.34
2022-10-30T02:31:40.829Z,94828.91
2022-10-30T02:34:07.405Z,94830.66
2022-10-30T02:36:33.980Z,94827.56
2022-10-30T02:39:00.793Z,94828.38
2022-10-30T02:41:27.401Z,94829.25
2022-10-30T02:43:54.011Z,94830.81
2022-10-30T02:46:21.106Z,94828.78
2022-10-30T02:48:47.861Z,94828.16
2022-10-30T02:51:14.528Z,94830.25
2022-10-30T02:53:41.199Z,94839.38
2022-10-30T02:56:10.290Z,94830.69
2022-10-30T02:58:37.114Z,94834.97
2022-10-30T03:01:30.095Z,94843.22
2022-10-30T03:03:56.796Z,94845.03
2022-10-30T03:06:23.706Z,94843.50
2022-10-30T03:08:50.339Z,94838.31
2022-10-30T03:11:18.964Z,94846.03
2022-10-30T03:13:46.938Z,94844.22
2022-10-30T03:16:16.278Z,94848.13
2022-10-30T03:18:43.182Z,94850.66
2022-10-30T03:21:13.223Z,94853.34
2022-10-30T03:23:39.918Z,94855.56
2022-10-30T03:26:06.870Z,94859.53
2022-10-30T03:28:33.733Z,94855.69
2022-10-30T03:31:02.831Z,94851.50
2022-10-30T03:33:29.886Z,94861.69
2022-10-30T03:35:56.857Z,94853.28
2022-10-30T03:38:23.479Z,94841.97
2022-10-30T03:40:50.322Z,94832.22
2022-10-30T03:43:16.950Z,94832.22
2022-10-30T03:45:50.845Z,94852.50
2022-10-30T03:48:18.835Z,94851.38
2022-10-30T03:50:45.994Z,94846.91
2022-10-30T03:53:13.071Z,94848.06
2022-10-30T03:55:39.976Z,94842.94
2022-10-30T03:58:07.070Z,94850.34
2022-10-30T04:00:35.478Z,94853.44
2022-10-30T04:03:03.001Z,94841.69
2022-10-30T04:05:29.653Z,94840.16
2022-10-30T04:08:01.710Z,94835.16
2022-10-30T04:10:28.895Z,94828.75
2022-10-30T04:13:01.779Z,94819.78
2022-10-30T04:15:28.474Z,94822.94
2022-10-30T04:17:55.400Z,94825.25
2022-10-30T04:20:23.989Z,94830.28
2022-10-30T04:22:56.403Z,94831.63
2022-10-30T04:25:23.495Z,94831.19
2022-10-30T04:27:50.175Z,94829.59
2022-10-30T04:30:16.774Z,94839.03
2022-10-30T04:32:51.512Z,94839.47
2022-10-30T04:35:20.036Z,94833.94
2022-10-30T04:37:57.775Z,94841.34
2022-10-30T04:40:25.993Z,94828.91
2022-10-30T04:42:52.745Z,94838.41
2022-10-30T04:45:19.623Z,94841.19
2022-10-30T04:47:46.421Z,94831.78
2022-10-30T04:50:13.856Z,94834.38
2022-10-30T04:52:41.009Z,94834.75
2022-10-30T04:55:08.957Z,94843.06
2022-10-30T04:57:36.986Z,94844.22
2022-10-30T05:00:06.481Z,94848.41
2022-10-30T05:02:37.239Z,94845.63
2022-10-30T05:05:05.110Z,94852.16
2022-10-30T05:07:31.772Z,94855.16
2022-10-30T05:09:58.376Z,94852.81
2022-10-30T05:12:25.069Z,94859.38
2022-10-30T05:14:51.684Z,94860.16
2022-10-30T05:17:18.297Z,94859.63
2022-10-30T05:19:44.989Z,94863.63
2022-10-30T05:22:12.799Z,94867.09
2022-10-30T05:24:39.417Z,94865.19
2022-10-30T05:27:06.112Z,94865.44
2022-10-30T05:29:32.705Z,94858.03
2022-10-30T05:31:59.438Z,94859.59
2022-10-30T05:34:26.114Z,94859.94
2022-10-30T05:36:52.707Z,94862.16
2022-10-30T05:39:19.351Z,94866.75
2022-10-30T05:41:45.978Z,94866.00
2022-10-30T05:44:12.624Z,94866.63
2022-10-30T05:46:39.236Z,94865.88
2022-10-30T05:49:05.971Z,94857.41
2022-10-30T05:51:36.571Z,94849.88
2022-10-30T05:54:06.543Z,94851.78
2022-10-30T05:56:33.161Z,94849.09
2022-10-30T05:58:59.824Z,94851.75
2022-10-30T06:01:26.622Z,94858.09
2022-10-30T06:03:53.415Z,94860.00
2022-10-30T06:06:20.013Z,94848.50
2022-10-30T06:08:46.815Z,94856.84
2022-10-30T06:11:13.442Z,94866.25
2022-10-30T06:13:40.489Z,94862.44
2022-10-30T06:16:07.273Z,94863.66
2022-10-30T06:18:33.888Z,94860.66
2022-10-30T06:21:00.527Z,94862.84
2022-10-30T06:23:27.184Z,94857.47
2022-10-30T06:25:53.824Z,94854.31
2022-10-30T06:28:21.133Z,94849.84
2022-10-30T06:30:48.005Z,94858.66
2022-10-30T06:33:15.000Z,94865.38
2022-10-30T06:35:41.588Z,94867.94
2022-10-30T06:38:10.103Z,94857.63
2022-10-30T06:40:36.679Z,94856.09
2022-10-30T06:43:03.476Z,94861.44
2022-10-30T06:45:30.192Z,94865.13
2022-10-30T06:47:57.479Z,94866.84
2022-10-30T06:50:24.459Z,94867.91
2022-10-30T06:52:51.305Z,94860.50
2022-10-30T06:55:18.174Z,94879.00
2022-10-30T06:57:44.786Z,94892.88
2022-10-30T07:00:12.912Z,94883.53
2022-10-30T07:02:39.563Z,94878.06
2022-10-30T07:05:06.394Z,94871.69
2022-10-30T07:07:33.146Z,94868.91
2022-10-30T07:09:59.818Z,94863.88
2022-10-30T07:12:26.462Z,94871.19
2022-10-30T07:14:53.100Z,94869.47
2022-10-30T07:17:19.708Z,94867.53
2022-10-30T07:19:46.367Z,94865.00
2022-10-30T07:22:13.011Z,94857.94
2022-10-30T07:24:39.610Z,94855.06
2022-10-30T07:27:06.181Z,94852.19
2022-10-30T07:29:32.774Z,94854.72
2022-10-30T07:32:03.038Z,94854.09
2022-10-30T07:34:30.361Z,94844.91
2022-10-30T07:36:57.179Z,94842.31
2022-10-30T07:39:23.815Z,94835.97
2022-10-30T07:41:50.713Z,94841.59
2022-10-30T07:44:17.684Z,94837.34
2022-10-30T07:46:44.358Z,94844.47
2022-10-30T07:49:11.109Z,94844.84
2022-10-30T07:51:37.717Z,94846.03
2022-10-30T07:54:04.365Z,94839.09
2022-10-30T07:56:30.976Z,94829.50
2022-10-30T07:58:57.590Z,94832.34
2022-10-30T08:01:24.285Z,94826.81
2022-10-30T08:03:50.938Z,94824.75
2022-10-30T08:06:20.078Z,94816.25
2022-10-30T08:08:49.656Z,94817.91
2022-10-30T08:11:16.260Z,94816.47
2022-10-30T08:13:42.858Z,94815.66
2022-10-30T08:16:09.511Z,94811.19
2022-10-30T08:18:36.227Z,94812.47
2022-10-30T08:21:02.862Z,94814.72
2022-10-30T08:23:29.554Z,94816.47
2022-10-30T08:26:01.831Z,94813.53
2022-10-30T08:28:31.789Z,94811.75
2022-10-30T08:31:00.760Z,94810.13
2022-10-30T08:33:27.449Z,94812.03
2022-10-30T08:35:56.820Z,94813.53
2022-10-30T08:38:24.118Z,94808.13
2022-10-30T08:40:50.930Z,94811.28
2022-10-30T08:43:17.963Z,94811.91
2022-10-30T08:45:44.886Z,94807.72
2022-10-30T08:48:13.722Z,94805.59
2022-10-30T08:50:40.767Z,94818.19
2022-10-30T08:53:10.405Z,94814.16
2022-10-30T08:55:37.244Z,94809.94
2022-10-30T08:58:03.865Z,94802.78
2022-10-30T09:00:31.319Z,94805.63
2022-10-30T09:02:58.659Z,94795.19
2022-10-30T09:05:25.694Z,94788.91
2022-10-30T09:07:58.072Z,94796.78
2022-10-30T09:10:24.926Z,94794.41
2022-10-30T09:12:56.224Z,94785.34
2022-10-30T09:15:23.204Z,94791.91
2022-10-30T09:17:59.072Z,94780.13
2022-10-30T09:20:26.433Z,94783.00
2022-10-30T09:22:53.091Z,94784.88
2022-10-30T09:25:20.171Z,94783.06
2022-10-30T09:27:47.022Z,94782.44
2022-10-30T09:30:14.461Z,94780.13
2022-10-30T09:32:41.282Z,94780.75
2022-10-30T09:35:09.130Z,94780.19
2022-10-30T09:37:39.732Z,94775.97
2022-10-30T09:40:07.915Z,94777.66
2022-10-30T09:42:51.202Z,94768.47
2022-10-30T09:45:46.361Z,94764.88
2022-10-30T09:48:24.912Z,94758.88
2022-10-30T09:51:10.153Z,94755.59
2022-10-30T09:53:55.374Z,94746.03
2022-10-30T09:56:35.071Z,94737.16
2022-10-30T09:59:20.241Z,94739.56
2022-10-30T10:02:17.417Z,94734.59
2022-10-30T10:04:50.897Z,94733.91
2022-10-30T10:07:24.039Z,94729.34
2022-10-30T10:09:56.770Z,94729.31
2022-10-30T10:12:26.354Z,94723.22
2022-10-30T10:14:56.466Z,94715.91
2022-10-30T10:17:34.876Z,94709.81
2022-10-30T10:20:04.121Z,94706.78
2022-10-30T10:22:39.358Z,94700.59
2022-10-30T10:25:13.732Z,94697.47
2022-10-30T10:27:53.040Z,94695.94
2022-10-30T10:30:22.471Z,94693.25
2022-10-30T10:33:03.947Z,94692.81
2022-10-30T10:35:43.431Z,94688.63
2022-10-30T10:38:15.823Z,94682.47
2022-10-30T10:40:51.511Z,94673.97
2022-10-30T10:43:52.032Z,94670.50
2022-10-30T10:46:18.707Z,94675.16
2022-10-30T10:48:57.222Z,94677.44
2022-10-30T10:51:36.152Z,94670.88
2022-10-30T10:54:11.604Z,94665.09
2022-10-30T10:56:47.656Z,94673.59
2022-10-30T10:59:22.736Z,94670.09
2022-10-30T11:02:03.598Z,94653.41
2022-10-30T11:04:33.008Z,94653.38
2022-10-30T11:07:12.902Z,94651.06
2022-10-30T11:09:42.075Z,94641.72
2022-10-30T11:12:09.623Z,94637.41
2022-10-30T11:14:37.841Z,94628.41
2022-10-30T11:17:44.030Z,94623.38
2022-10-30T11:20:32.389Z,94623.38
2022-10-30T11:22:59.297Z,94609.81
2022-10-30T11:25:40.928Z,94618.38
2022-10-30T11:28:48.826Z,94615.59
2022-10-30T11:31:27.652Z,94612.16
2022-10-30T11:33:54.524Z,94599.66
2022-10-30T11:36:25.573Z,94602.84
2022-10-30T11:38:57.227Z,94607.34
2022-10-30T11:41:24.538Z,94598.41
2022-10-30T11:43:51.352Z,94597.53
2022-10-30T11:46:23.408Z,94595.19
2022-10-30T11:48:54.989Z,94585.78
2022-10-30T11:51:35.319Z,94579.59
2022-10-30T11:54:02.528Z,94590.88
2022-10-30T11:56:30.757Z,94586.72
2022-10-30T11:59:00.110Z,94591.41
2022-10-30T12:02:00.946Z,94591.34
2022-10-30T12:04:33.674Z,94581.94
2022-10-30T12:07:24.510Z,94592.53
2022-10-30T12:09:51.203Z,94588.59
2022-10-30T12:12:38.648Z,94577.25
2022-10-30T12:15:36.114Z,94579.28
2022-10-30T12:18:07.293Z,94585.31
2022-10-30T12:20:37.869Z,94579.59
2022-10-30T12:23:12.826Z,94582.25
2022-10-30T12:25:39.905Z,94564.31
2022-10-30T12:28:13.238Z,94571.97
2022-10-30T12:30:50.700Z,94570.91
2022-10-30T12:33:34.311Z,94560.88
2022-10-30T12:36:07.033Z,94560.00
2022-10-30T12:38:45.059Z,94556.03
2022-10-30T12:41:32.648Z,94562.25
2022-10-30T12:44:19.457Z,94556.97
2022-10-30T12:46:51.668Z,94553.00
2022-10-30T12:49:25.461Z,94553.13
2022-10-30T12:51:57.090Z,94556.41
2022-10-30T12:54:41.938Z,94551.78
2022-10-30T12:57:13.822Z,94551.53
2022-10-30T13:00:00.716Z,94546.56
2022-10-30T13:02:39.235Z,94542.84
2022-10-30T13:05:19.854Z,94545.13
2022-10-30T13:07:55.533Z,94534.59
2022-10-30T13:10:27.398Z,94534.13
2022-10-30T13:12:59.044Z,94540.09
2022-10-30T13:15:30.944Z,94532.75
2022-10-30T13:18:14.182Z,94535.91
2022-10-30T13:20:43.277Z,94527.94
2022-10-30T13:23:16.755Z,94534.09
2022-10-30T13:26:30.820Z,94530.25
2022-10-30T13:29:16.439Z,94531.59
2022-10-30T13:31:48.915Z,94526.50
2022-10-30T13:34:30.761Z,94528.28
2022-10-30T13:37:15.834Z,94530.25
2022-10-30T13:40:03.732Z,94523.97
2022-10-30T13:42:56.296Z,94522.22
2022-10-30T13:45:32.029Z,94522.22
2022-10-30T13:48:26.593Z,94530.44
2022-10-30T13:51:20.995Z,94542.00
2022-10-30T13:53:54.207Z,94531.25
2022-10-30T13:56:22.544Z,94537.22
2022-10-30T13:59:03.397Z,94529.53
2022-10-30T14:01:39.832Z,94529.88
2022-10-30T14:04:17.645Z,94540.91
2022-10-30T14:07:08.505Z,94540.34
2022-10-30T14:09:59.515Z,94535.41
2022-10-30T14:12:52.879Z,94532.50
2022-10-30T14:15:27.594Z,94536.13
2022-10-30T14:18:12.341Z,94539.84
2022-10-30T14:20:53.084Z,94540.50
2022-10-30T14:23:19.622Z,94531.34
2022-10-30T14:26:04.745Z,94538.47
2022-10-30T14:28:45.348Z,94541.75
2022-10-30T14:31:17.685Z,94533.88
2022-10-30T14:33:51.406Z,94540.97
2022-10-30T14:36:39.564Z,94540.78
2022-10-30T14:39:14.803Z,94536.78
2022-10-30T14:41:47.573Z,94542.13
2022-10-30T14:44:25.027Z,94543.97
2022-10-30T14:46:51.550Z,94547.56
2022-10-30T14:49:27.178Z,94544.81
2022-10-30T14:52:14.427Z,94553.84
2022-10-30T14:55:26.032Z,94559.88
2022-10-30T14:58:03.179Z,94547.34
2022-10-30T15:00:38.622Z,94549.41
2022-10-30T15:03:18.381Z,94544.75
2022-10-30T15:05:56.514Z,94552.44
2022-10-30T15:08:49.352Z,94555.66
2022-10-30T15:11:24.870Z,94557.06
2022-10-30T15:14:12.548Z,94550.53
2022-10-30T15:16:50.887Z,94547.38
2022-10-30T15:19:23.000Z,94555.09
2022-10-30T15:21:52.916Z,94552.16
2022-10-30T15:24:25.851Z,94547.00
2022-10-30T15:26:58.779Z,94552.94
2022-10-30T15:29:30.190Z,94549.00
2022-10-30T15:32:19.961Z,94548.22
2022-10-30T15:35:00.244Z,94554.50
2022-10-30T15:37:27.851Z,94559.19
2022-10-30T15:40:11.638Z,94562.63
2022-10-30T15:42:39.495Z,94562.63
2022-10-30T15:45:11.775Z,94550.03
2022-10-30T15:47:46.387Z,94550.69
2022-10-30T15:50:13.734Z,94562.00
2022-10-30T15:52:42.889Z,94554.28
2022-10-30T15:55:15.688Z,94554.69
2022-10-30T15:58:02.971Z,94559.78
2022-10-30T16:00:36.489Z,94564.75
2022-10-30T16:03:11.981Z,94572.31
2022-10-30T16:05:38.640Z,94571.06
2022-10-30T16:08:14.333Z,94575.09
2022-10-30T16:10:43.353Z,94577.38
2022-10-30T16:13:18.805Z,94578.16
2022-10-30T16:15:47.545Z,94584.00
2022-10-30T16:18:23.793Z,94579.00
2022-10-30T16:20:54.540Z,94575.84
2022-10-30T16:23:21.984Z,94582.03
2022-10-30T16:25:54.679Z,94583.56
2022-10-30T16:28:37.672Z,94590.22
2022-10-30T16:31:16.038Z,94586.69
2022-10-30T16:33:46.408Z,94599.50
2022-10-30T16:36:17.789Z,94596.38
2022-10-30T16:38:47.600Z,94592.53
2022-10-30T16:41:14.716Z,94592.91
2022-10-30T16:43:48.365Z,94596.00
2022-10-30T16:46:14.908Z,94599.13
2022-10-30T16:48:50.933Z,94603.03
2022-10-30T16:51:18.641Z,94605.34
2022-10-30T16:53:50.418Z,94605.75
2022-10-30T16:56:22.546Z,94608.50
2022-10-30T16:58:49.724Z,94606.53
2022-10-30T17:01:16.834Z,94610.78
2022-10-30T17:03:43.914Z,94607.34
2022-10-30T17:06:43.399Z,94598.88
2022-10-30T17:09:34.379Z,94603.47
2022-10-30T17:12:12.992Z,94606.19
2022-10-30T17:15:14.302Z,94608.91
2022-10-30T17:17:42.047Z,94607.75
2022-10-30T17:20:34.655Z,94606.22
2022-10-30T17:23:27.649Z,94610.88
2022-10-30T17:25:55.216Z,94604.28
2022-10-30T17:28:33.074Z,94602.34
2022-10-30T17:31:29.815Z,94608.91
2022-10-30T17:34:19.811Z,94601.56
2022-10-30T17:36:48.035Z,94601.59
2022-10-30T17:39:15.306Z,94603.88
2022-10-30T17:41:43.099Z,94604.63
2022-10-30T17:44:19.631Z,94600.38
2022-10-30T17:46:46.367Z,94601.56
2022-10-30T17:49:25.210Z,94601.59
2022-10-30T17:51:52.194Z,94606.22
2022-10-30T17:54:18.971Z,94599.66
2022-10-30T17:56:45.612Z,94597.72
2022-10-30T17:59:12.372Z,94591.13
2022-10-30T18:01:39.348Z,94596.97
2022-10-30T18:04:17.905Z,94599.25
2022-10-30T18:06:48.150Z,94591.13
2022-10-30T18:09:15.067Z,94593.47
2022-10-30T18:11:41.811Z,94588.44
2022-10-30T18:14:11.185Z,94591.50
2022-10-30T18:16:38.046Z,94584.94
2022-10-30T18:19:09.214Z,94584.56
2022-10-30T18:21:47.978Z,94590.34
2022-10-30T18:24:16.051Z,94596.91
2022-10-30T18:26:48.634Z,94593.81
2022-10-30T18:29:15.382Z,94607.75
2022-10-30T18:31:42.059Z,94602.69
2022-10-30T18:34:18.342Z,94595.31
2022-10-30T18:36:45.110Z,94604.63
2022-10-30T18:39:13.009Z,94603.47
2022-10-30T18:41:44.744Z,94604.25
2022-10-30T18:44:15.860Z,94601.16
2022-10-30T18:46:42.867Z,94603.91
2022-10-30T18:49:09.574Z,94601.19
2022-10-30T18:51:36.315Z,94596.56
2022-10-30T18:54:03.943Z,94593.84
2022-10-30T18:56:35.159Z,94592.28
2022-10-30T18:59:05.454Z,94594.59
2022-10-30T19:01:32.776Z,94596.13
2022-10-30T19:04:04.480Z,94607.69
2022-10-30T19:06:36.320Z,94604.56
2022-10-30T19:09:20.562Z,94611.53
2022-10-30T19:11:47.566Z,94613.44
2022-10-30T19:14:29.063Z,94619.63
2022-10-30T19:16:59.968Z,94618.13
2022-10-30T19:19:26.580Z,94620.84
2022-10-30T19:22:00.897Z,94615.44
2022-10-30T19:24:39.494Z,94617.78
2022-10-30T19:27:11.809Z,94619.34
2022-10-30T19:29:39.584Z,94611.59
2022-10-30T19:32:11.474Z,94598.41
2022-10-30T19:34:40.620Z,94609.63
2022-10-30T19:37:09.324Z,94611.09
2022-10-30T19:39:38.265Z,94602.50
2022-10-30T19:42:04.958Z,94603.94
2022-10-30T19:44:41.270Z,94609.06
2022-10-30T19:47:17.114Z,94614.38
2022-10-30T19:52:42.147Z,94613.25
2022-10-30T19:55:24.005Z,94611.41
2022-10-30T19:57:50.931Z,94606.38
2022-10-30T20:00:35.831Z,94614.53
2022-10-30T20:03:10.492Z,94615.72
2022-10-30T20:05:40.739Z,94625.31
2022-10-30T20:08:39.953Z,94622.66
2022-10-30T20:11:07.072Z,94622.28
2022-10-30T20:13:42.014Z,94622.75
2022-10-30T20:16:14.140Z,94632.34
2022-10-30T20:18:44.230Z,94631.31
2022-10-30T20:21:30.186Z,94637.44
2022-10-30T20:23:58.049Z,94635.50
2022-10-30T20:26:40.265Z,94646.63
2022-10-30T20:31:51.515Z,94646.50
2022-10-30T20:34:22.467Z,94647.69
2022-10-30T20:36:51.780Z,94639.16
2022-10-30T20:39:26.709Z,94648.38
2022-10-30T20:41:56.963Z,94630.72
2022-10-30T20:44:23.547Z,94635.88
2022-10-30T20:46:50.441Z,94640.44
2022-10-30T20:49:18.397Z,94636.13
2022-10-30T20:51:51.372Z,94639.16
2022-10-30T20:54:27.221Z,94639.94
2022-10-30T20:56:53.868Z,94641.34
2022-10-30T20:59:23.992Z,94634.50
2022-10-30T21:01:54.026Z,94636.03
2022-10-30T21:04:20.725Z,94632.19
2022-10-30T21:09:28.009Z,94628.66
2022-10-30T21:11:57.445Z,94619.81
2022-10-30T21:14:24.050Z,94623.47
2022-10-30T21:17:01.528Z,94622.88
2022-10-30T21:19:35.880Z,94619.34
2022-10-30T21:22:02.537Z,94619.44
2022-10-30T21:24:34.304Z,94623.66
2022-10-30T21:27:09.269Z,94622.06
2022-10-30T21:29:36.480Z,94621.16
2022-10-30T21:32:09.087Z,94620.06
2022-10-30T21:34:47.227Z,94630.81
2022-10-30T21:37:20.182Z,94621.09
2022-10-30T21:39:47.562Z,94615.97
2022-10-30T21:42:24.229Z,94622.19
2022-10-30T21:44:52.367Z,94620.34
2022-10-30T21:47:18.959Z,94624.22
2022-10-30T21:49:45.558Z,94618.66
2022-10-30T21:52:23.069Z,94627.25
2022-10-30T21:54:55.175Z,94631.00
2022-10-30T21:57:21.797Z,94630.22
2022-10-30T21:59:48.903Z,94632.47
2022-10-30T22:02:16.108Z,94635.44
2022-10-30T22:04:49.100Z,94639.50
2022-10-30T22:07:22.525Z,94647.28
2022-10-30T22:09:52.483Z,94651.22
2022-10-30T22:12:25.535Z,94651.56
2022-10-30T22:15:00.266Z,94663.94
2022-10-30T22:17:33.953Z,94660.22
2022-10-30T22:20:07.770Z,94658.03
2022-10-30T22:22:34.371Z,94657.50
2022-10-30T22:25:02.900Z,94659.44
2022-10-30T22:27:36.057Z,94665.09
2022-10-30T22:30:08.669Z,94648.19
2022-10-30T22:32:41.834Z,94648.69
2022-10-30T22:35:19.580Z,94645.88
2022-10-30T22:37:56.027Z,94639.38
2022-10-30T22:40:33.242Z,94637.03
2022-10-30T22:43:02.278Z,94637.47
2022-10-30T22:45:33.969Z,94631.28
2022-10-30T22:48:04.877Z,94628.91
2022-10-30T22:50:31.636Z,94625.88
2022-10-30T22:53:08.498Z,94626.66
2022-10-30T22:55:37.091Z,94628.91
2022-10-30T22:58:04.047Z,94631.38
2022-10-30T23:00:34.393Z,94624.53
2022-10-30T23:03:01.425Z,94613.41
2022-10-30T23:05:35.633Z,94621.56
2022-10-30T23:08:02.316Z,94620.13
2022-10-30T23:10:36.239Z,94617.69
2022-10-30T23:13:04.300Z,94615.31
2022-10-30T23:18:22.656Z,94608.16
2022-10-30T23:20:55.073Z,94598.50
2022-10-30T23:23:29.181Z,94600.97
2022-10-30T23:26:02.911Z,94600.97
2022-10-30T23:28:32.444Z,94601.16
2022-10-30T23:31:08.654Z,94601.16
2022-10-30T23:33:40.834Z,94601.56
2022-10-30T23:39:01.860Z,94613.78
2022-10-30T23:41:35.086Z,94615.28
2022-10-30T23:44:10.567Z,94621.16
2022-10-30T23:46:43.850Z,94626.88
2022-10-30T23:49:11.630Z,94627.63
2022-10-30T23:51:46.869Z,94627.75
2022-10-30T23:54:21.555Z,94613.88
2022-10-30T23:56:55.322Z,94617.91
2022-10-30T23:59:27.524Z,94608.16
